Time;durP1;ratioP1;P1;durP2;ratioP2;P2;SDS_P1;SDS_P2;PMS_P1;PMS_P2;Temp;Humidity;BMP_temperature;BMP_pressure;BME280_temperature;BME280_humidity;BME280_pressure;Samples;Min_cycle;Max_cycle;Signal;HPM_P1;HPM_P2
2022/01/16 00:04:08;;;;;;;354.92;26.67;;;;;;;4.52;79.45;100448.31;5068267;28;20048;-60
2022/01/16 00:06:42;;;;;;;390.77;25.83;;;;;;;4.51;79.05;100444.81;5089702;28;20480;-60
2022/01/16 00:09:09;;;;;;;283.30;22.13;;;;;;;4.54;79.21;100413.47;5090354;28;20102;-60
2022/01/16 00:11:36;;;;;;;353.30;23.10;;;;;;;4.56;79.07;100405.59;5093206;28;20044;-61
2022/01/16 00:14:04;;;;;;;331.08;23.60;;;;;;;4.56;79.20;100423.84;5093174;28;20500;-61
2022/01/16 00:16:32;;;;;;;335.40;22.73;;;;;;;4.56;78.97;100426.44;5091978;28;20047;-60
2022/01/16 00:18:59;;;;;;;393.58;25.75;;;;;;;4.55;78.90;100417.78;5091952;28;20060;-61
2022/01/16 00:21:29;;;;;;;349.77;25.35;;;;;;;4.55;78.89;100430.84;5092785;28;20048;-62
2022/01/16 00:23:55;;;;;;;289.63;22.00;;;;;;;4.54;79.19;100421.31;5092129;28;20097;-61
2022/01/16 00:26:23;;;;;;;363.48;23.67;;;;;;;4.54;79.24;100433.47;5092796;28;20504;-63
2022/01/16 00:28:51;;;;;;;330.52;24.00;;;;;;;4.53;79.13;100422.16;5092907;28;20052;-61
2022/01/16 00:31:20;;;;;;;313.23;22.00;;;;;;;4.55;79.22;100414.31;5091298;28;20561;-63
2022/01/16 00:33:47;;;;;;;265.23;22.27;;;;;;;4.56;79.27;100419.50;5091496;28;20067;-61
2022/01/16 00:36:17;;;;;;;196.88;18.65;;;;;;;4.56;78.92;100416.03;5092704;28;20087;-64
2022/01/16 00:38:45;;;;;;;350.70;22.83;;;;;;;4.55;78.86;100415.19;5091579;28;20056;-61
2022/01/16 00:41:14;;;;;;;313.65;22.38;;;;;;;4.53;78.69;100414.34;5092622;28;20048;-61
2022/01/16 00:43:41;;;;;;;265.50;21.00;;;;;;;4.54;78.37;100412.59;5091481;28;20048;-61
2022/01/16 00:46:08;;;;;;;243.57;18.80;;;;;;;4.52;78.74;100410.03;5091431;28;20047;-60
2022/01/16 00:48:36;;;;;;;373.25;22.98;;;;;;;4.49;79.16;100397.06;5092373;28;20082;-61
2022/01/16 00:51:03;;;;;;;220.45;18.90;;;;;;;4.47;78.81;100387.53;5092135;28;20055;-62
2022/01/16 00:53:29;;;;;;;198.82;17.58;;;;;;;4.46;78.48;100391.91;5092474;28;20442;-61
2022/01/16 00:55:56;;;;;;;268.30;19.52;;;;;;;4.44;78.63;100391.06;5092354;28;20101;-60
2022/01/16 00:58:23;;;;;;;186.20;15.88;;;;;;;4.41;78.39;100371.16;5092107;28;20090;-62
2022/01/16 01:00:50;;;;;;;169.73;16.45;;;;;;;4.40;78.52;100379.00;5092121;28;20077;-61
2022/01/16 01:03:17;;;;;;;196.63;15.48;;;;;;;4.36;77.97;100398.19;5092034;28;20048;-61
2022/01/16 01:05:44;;;;;;;214.73;15.05;;;;;;;4.33;78.06;100404.34;5092565;28;20058;-61
2022/01/16 01:08:10;;;;;;;296.35;21.83;;;;;;;4.30;78.17;100375.75;5092275;28;20055;-62
2022/01/16 01:10:39;;;;;;;285.50;18.52;;;;;;;4.25;78.05;100374.97;5091850;28;20087;-62
2022/01/16 01:13:21;;;;;;;342.38;21.15;;;;;;;4.21;78.33;100384.59;5091786;28;20438;-61
2022/01/16 01:15:51;;;;;;;241.88;18.55;;;;;;;4.17;78.83;100388.16;5092073;28;20087;-61
2022/01/16 01:18:20;;;;;;;268.20;22.05;;;;;;;4.14;78.70;100399.50;5092299;28;20052;-60
2022/01/16 01:20:49;;;;;;;257.38;19.88;;;;;;;4.13;78.79;100392.59;5090333;28;20052;-62
2022/01/16 01:23:16;;;;;;;249.35;18.92;;;;;;;4.11;78.99;100389.13;5091823;28;20117;-61
2022/01/16 01:25:43;;;;;;;217.48;18.38;;;;;;;4.11;79.33;100389.13;5090640;28;20117;-61
2022/01/16 01:28:12;;;;;;;149.60;16.30;;;;;;;4.11;79.26;100402.16;5091802;28;20048;-60
2022/01/16 01:30:40;;;;;;;145.57;15.65;;;;;;;4.12;79.34;100410.84;5090290;28;20101;-60
2022/01/16 01:33:07;;;;;;;112.45;15.30;;;;;;;4.13;80.13;100428.19;5091653;28;20083;-62
2022/01/16 01:35:38;;;;;;;240.90;19.63;;;;;;;4.16;79.86;100438.56;5090497;28;20081;-61
2022/01/16 01:38:07;;;;;;;86.32;15.02;;;;;;;4.19;79.73;100446.34;5091607;28;20129;-60
2022/01/16 01:40:35;;;;;;;92.75;14.20;;;;;;;4.24;79.97;100404.53;5091227;28;20052;-62
2022/01/16 01:51:01;;;;;;;142.43;16.10;;;;;;;4.27;79.89;100358.41;5091266;28;20572;-62
2022/01/16 01:51:42;;;;;;;182.73;18.20;;;;;;;4.43;79.55;100345.06;5091056;28;20048;-61
2022/01/16 01:54:09;;;;;;;321.52;23.98;;;;;;;4.47;79.54;100338.00;5089917;28;20109;-61
2022/01/16 01:56:37;;;;;;;150.77;17.90;;;;;;;4.49;79.37;100344.91;5091442;28;20093;-60
2022/01/16 01:59:04;;;;;;;186.35;18.67;;;;;;;4.49;79.31;100360.56;5091114;28;20056;-64
2022/01/16 02:01:31;;;;;;;55.20;15.13;;;;;;;4.51;79.37;100365.72;5089648;28;20044;-62
2022/01/16 02:03:58;;;;;;;67.60;16.77;;;;;;;4.51;79.54;100377.03;5091337;28;20086;-61
2022/01/16 02:06:30;;;;;;;51.05;18.02;;;;;;;4.54;79.10;100383.94;5091390;28;20545;-61
2022/01/16 02:08:59;;;;;;;63.85;19.13;;;;;;;4.55;79.13;100390.84;5091158;28;20070;-63
2022/01/16 02:11:29;;;;;;;149.80;20.58;;;;;;;4.56;79.14;100376.91;5089426;28;20044;-60
2022/01/16 02:14:51;;;;;;;121.38;17.25;;;;;;;4.58;79.11;100377.75;5089782;28;20052;-61
2022/01/16 02:28:24;;;;;;;112.53;19.77;;;;;;;4.60;78.81;100401.19;5090727;28;20044;-61
2022/01/16 02:36:31;;;;;;;43.05;21.52;;;;;;;4.63;79.47;100395.91;5090770;28;20043;-61
2022/01/16 02:39:08;;;;;;;46.22;23.27;;;;;;;4.64;79.22;100406.28;5090510;28;20044;-61
2022/01/16 02:41:35;;;;;;;46.28;24.77;;;;;;;4.65;78.85;100383.69;5090291;28;20048;-60
2022/01/16 02:44:12;;;;;;;44.95;24.05;;;;;;;4.67;78.84;100387.09;5089462;28;20117;-62
2022/01/16 02:46:39;;;;;;;44.42;22.70;;;;;;;4.65;79.09;100395.00;5090700;28;20055;-60
2022/01/16 02:49:20;;;;;;;47.13;24.20;;;;;;;4.64;78.58;100389.81;5090424;28;20055;-63
2022/01/16 02:51:48;;;;;;;39.95;22.05;;;;;;;4.68;79.16;100386.25;5090310;28;20063;-61
2022/01/16 02:54:14;;;;;;;53.50;25.13;;;;;;;4.69;78.71;100380.13;5089017;28;20117;-61
2022/01/16 02:56:43;;;;;;;52.53;24.20;;;;;;;4.70;78.69;100368.78;5090503;28;20457;-60
2022/01/16 02:59:11;;;;;;;47.60;23.48;;;;;;;4.71;78.83;100372.28;5088841;28;20044;-62
2022/01/16 03:01:39;;;;;;;47.78;23.85;;;;;;;4.71;78.66;100367.88;5089028;28;20450;-61
2022/01/16 03:04:07;;;;;;;53.95;25.88;;;;;;;4.73;78.34;100368.72;5090145;28;20130;-60
2022/01/16 03:06:34;;;;;;;49.08;24.52;;;;;;;4.72;78.34;100359.19;5090391;28;20072;-62
2022/01/16 03:09:02;;;;;;;53.75;25.45;;;;;;;4.71;78.17;100360.06;5088908;28;20048;-61
2022/01/16 03:11:39;;;;;;;50.70;24.80;;;;;;;4.69;77.89;100354.03;5089765;28;20078;-61
2022/01/16 03:14:10;;;;;;;52.10;25.83;;;;;;;4.66;77.75;100343.69;5090088;28;20177;-62
2022/01/16 03:16:37;;;;;;;56.25;26.08;;;;;;;4.65;77.57;100344.56;5090014;28;20102;-61
2022/01/16 03:21:54;;;;;;;60.42;25.67;;;;;;;4.60;78.05;100336.00;5070243;28;20055;-60
2022/01/16 03:24:22;;;;;;;63.88;27.10;;;;;;;4.57;77.83;100334.31;5089957;28;20569;-61
2022/01/16 03:26:48;;;;;;;63.85;27.00;;;;;;;4.55;78.06;100343.91;5089937;28;20105;-61
2022/01/16 03:29:15;;;;;;;75.72;27.60;;;;;;;4.54;78.49;100350.91;5089669;28;20121;-60
2022/01/16 03:31:41;;;;;;;66.22;27.73;;;;;;;4.54;78.36;100343.09;5090060;28;20051;-61
2022/01/16 03:34:08;;;;;;;64.88;27.00;;;;;;;4.54;78.63;100350.91;5090092;28;20059;-61
2022/01/16 03:36:35;;;;;;;81.40;28.00;;;;;;;4.53;78.62;100337.91;5089932;28;20052;-61
2022/01/16 03:39:03;;;;;;;111.75;28.42;;;;;;;4.54;78.69;100343.09;5089922;28;20094;-61
2022/01/16 03:41:30;;;;;;;101.97;29.60;;;;;;;4.55;78.66;100334.34;5088306;28;20112;-61
2022/01/16 03:44:01;;;;;;;80.43;29.35;;;;;;;4.56;78.63;100337.81;5089550;28;20048;-61
2022/01/16 03:46:35;;;;;;;77.78;29.00;;;;;;;4.55;78.33;100323.94;5093701;28;20051;-61
2022/01/16 03:49:05;;;;;;;79.78;32.45;;;;;;;4.55;78.36;100310.88;5093902;28;20499;-61
2022/01/16 03:51:32;;;;;;;162.30;35.42;;;;;;;4.55;78.22;100316.09;5093751;28;20101;-61
2022/01/16 03:53:59;;;;;;;206.27;35.00;;;;;;;4.55;78.46;100315.25;5093663;28;20044;-62
2022/01/16 03:56:26;;;;;;;187.82;33.00;;;;;;;4.52;78.66;100316.16;5093764;28;20109;-60
2022/01/16 03:58:52;;;;;;;160.70;32.42;;;;;;;4.52;78.74;100318.78;5093644;28;20048;-61
2022/01/16 04:01:19;;;;;;;76.55;30.13;;;;;;;4.52;78.58;100317.94;5093124;28;20105;-61
2022/01/16 04:03:46;;;;;;;70.32;32.88;;;;;;;4.50;78.58;100322.31;5093381;28;20059;-61
2022/01/16 04:06:13;;;;;;;80.25;34.22;;;;;;;4.49;78.25;100337.09;5093481;28;20044;-60
2022/01/16 04:08:39;;;;;;;68.10;32.47;;;;;;;4.47;78.45;100338.00;5093068;28;20044;-62
2022/01/16 04:11:07;;;;;;;68.38;30.85;;;;;;;4.46;78.89;100347.59;5093281;28;20055;-60
2022/01/16 04:13:34;;;;;;;62.60;29.27;;;;;;;4.47;78.86;100348.44;5093186;28;20052;-61
2022/01/16 04:16:01;;;;;;;75.43;32.05;;;;;;;4.47;78.89;100338.88;5093118;28;20048;-62
2022/01/16 04:18:27;;;;;;;64.82;29.58;;;;;;;4.48;79.21;100343.19;5093011;28;20113;-62
2022/01/16 04:20:54;;;;;;;77.38;33.20;;;;;;;4.50;79.00;100353.59;5092809;28;20044;-60
2022/01/16 04:23:20;;;;;;;73.03;33.50;;;;;;;4.53;78.88;100356.97;5092839;28;20052;-60
2022/01/16 04:25:47;;;;;;;68.45;30.90;;;;;;;4.55;78.94;100363.03;5091940;28;20109;-61
2022/01/16 04:28:14;;;;;;;81.97;31.17;;;;;;;4.56;78.92;100364.75;5093144;28;20044;-61
2022/01/16 04:30:40;;;;;;;98.88;32.63;;;;;;;4.56;78.84;100364.75;5092664;28;20086;-61
2022/01/16 04:33:07;;;;;;;122.53;31.80;;;;;;;4.57;78.70;100361.25;5092772;28;20139;-62
2022/01/16 04:35:33;;;;;;;71.97;28.75;;;;;;;4.58;78.58;100367.31;5092915;28;20044;-62
2022/01/16 04:38:00;;;;;;;86.00;27.25;;;;;;;4.59;78.77;100376.84;5092937;28;20113;-61
2022/01/16 04:40:40;;;;;;;69.40;26.92;;;;;;;4.59;78.70;100369.03;5092386;28;20546;-60
2022/01/16 04:45:52;;;;;;;93.75;27.08;;;;;;;4.63;78.83;100381.13;5092480;28;20087;-61
2022/01/16 04:48:19;;;;;;;66.80;28.77;;;;;;;4.63;78.61;100381.13;5092450;28;20053;-61
2022/01/16 04:50:45;;;;;;;56.40;24.45;;;;;;;4.63;78.24;100378.50;5092209;28;20499;-63
2022/01/16 04:53:12;;;;;;;81.80;28.33;;;;;;;4.63;78.33;100375.91;5092473;28;20059;-62
2022/01/16 04:55:38;;;;;;;57.80;25.25;;;;;;;4.62;78.24;100363.75;5091889;28;20459;-61
2022/01/16 04:58:05;;;;;;;72.80;27.08;;;;;;;4.63;78.03;100364.63;5092319;28;20044;-60
2022/01/16 05:00:32;;;;;;;75.20;24.83;;;;;;;4.62;78.26;100360.28;5092087;28;20062;-60
2022/01/16 05:02:58;;;;;;;96.90;28.05;;;;;;;4.61;78.35;100359.44;5092098;28;20511;-61
2022/01/16 05:05:25;;;;;;;89.50;28.80;;;;;;;4.61;77.87;100346.41;5092183;28;20054;-60
2022/01/16 05:07:51;;;;;;;84.60;29.67;;;;;;;4.60;77.96;100344.66;5092153;28;20047;-62
2022/01/16 05:10:18;;;;;;;67.82;28.65;;;;;;;4.57;77.68;100342.16;5091852;28;20089;-62
2022/01/16 05:12:49;;;;;;;100.05;29.42;;;;;;;4.56;77.85;100337.81;5092278;28;20085;-60
2022/01/16 05:18:01;;;;;;;157.50;29.00;;;;;;;4.49;77.84;100318.84;5091994;28;20492;-60
2022/01/16 05:20:28;;;;;;;127.10;29.73;;;;;;;4.47;78.05;100323.25;5091763;28;20047;-61
2022/01/16 05:22:54;;;;;;;132.18;30.30;;;;;;;4.44;78.16;100320.69;5092024;28;20055;-61
2022/01/16 05:25:21;;;;;;;147.48;31.90;;;;;;;4.40;78.00;100319.03;5091940;28;20044;-60
2022/01/16 05:27:48;;;;;;;136.88;30.67;;;;;;;4.37;78.01;100324.34;5091710;28;20508;-61
2022/01/16 05:30:14;;;;;;;114.35;30.27;;;;;;;4.34;78.03;100321.81;5091955;28;20043;-61
2022/01/16 05:32:41;;;;;;;81.38;28.05;;;;;;;4.32;78.31;100323.56;5091846;28;20097;-62
2022/01/16 05:35:09;;;;;;;169.75;30.25;;;;;;;4.29;78.68;100312.34;5091817;28;20507;-61
2022/01/16 05:37:36;;;;;;;160.63;32.67;;;;;;;4.28;78.47;100320.19;5090407;28;20519;-62
2022/01/16 05:40:04;;;;;;;177.48;32.97;;;;;;;4.26;78.25;100312.41;5091470;28;20097;-61
2022/01/16 05:42:32;;;;;;;143.35;31.88;;;;;;;4.25;78.63;100312.44;5090201;28;20493;-63
2022/01/16 05:44:59;;;;;;;174.02;34.08;;;;;;;4.24;78.54;100314.19;5091510;28;20070;-62
2022/01/16 05:47:26;;;;;;;232.57;38.20;;;;;;;4.21;78.74;100303.81;5091635;28;20065;-60
2022/01/16 05:49:53;;;;;;;210.55;35.15;;;;;;;4.20;78.47;100302.13;5091004;28;20048;-60
2022/01/16 05:52:40;;;;;;;250.75;37.97;;;;;;;4.17;78.72;100299.56;5091446;28;20135;-63
2022/01/16 05:55:08;;;;;;;258.98;39.95;;;;;;;4.15;78.50;100294.38;5091130;28;20052;-61
2022/01/16 05:57:34;;;;;;;237.38;37.60;;;;;;;4.14;78.83;100294.41;5089937;28;20048;-60
2022/01/16 06:00:03;;;;;;;116.43;33.05;;;;;;;4.13;79.03;100292.72;5091025;28;20048;-60
2022/01/16 06:02:30;;;;;;;116.78;32.33;;;;;;;4.13;79.19;100292.72;5089762;28;20048;-61
2022/01/16 06:04:56;;;;;;;99.85;32.42;;;;;;;4.14;79.36;100290.06;5091070;28;20101;-61
2022/01/16 06:07:23;;;;;;;86.57;32.15;;;;;;;4.15;79.54;100290.94;5090132;28;20063;-61
2022/01/16 06:09:52;;;;;;;122.93;35.20;;;;;;;4.15;79.47;100286.56;5091202;28;20048;-63
2022/01/16 06:12:19;;;;;;;144.13;38.05;;;;;;;4.15;79.32;100296.16;5089798;28;20097;-62
2022/01/16 06:14:46;;;;;;;111.10;34.72;;;;;;;4.15;79.49;100296.16;5089654;28;20059;-61
2022/01/16 06:17:14;;;;;;;107.78;33.10;;;;;;;4.16;79.29;100301.31;5090660;28;20419;-61
2022/01/16 06:19:41;;;;;;;134.73;35.17;;;;;;;4.17;79.50;100296.97;5089257;28;20052;-61
2022/01/16 06:22:07;;;;;;;144.75;35.42;;;;;;;4.20;79.35;100283.88;5090841;28;20044;-62
2022/01/16 06:24:34;;;;;;;133.10;35.50;;;;;;;4.21;79.32;100287.31;5089661;28;20052;-62
2022/01/16 06:27:00;;;;;;;137.75;35.20;;;;;;;4.21;79.29;100280.38;5090679;28;20113;-61
2022/01/16 06:29:27;;;;;;;194.23;35.78;;;;;;;4.22;79.25;100291.66;5090446;28;20476;-61
2022/01/16 06:31:53;;;;;;;170.32;36.80;;;;;;;4.22;79.29;100292.50;5090654;28;20052;-61
2022/01/16 06:34:20;;;;;;;144.55;35.88;;;;;;;4.22;79.09;100281.25;5090271;28;20089;-62
2022/01/16 06:36:46;;;;;;;101.47;36.35;;;;;;;4.22;79.18;100286.44;5090295;28;20044;-61
2022/01/16 06:39:13;;;;;;;107.00;35.60;;;;;;;4.22;79.22;100284.69;5090625;28;20060;-61
2022/01/16 06:41:40;;;;;;;110.22;36.90;;;;;;;4.21;79.25;100296.00;5090504;28;20051;-64
2022/01/16 06:44:07;;;;;;;97.57;37.78;;;;;;;4.22;79.22;100295.09;5090677;28;20181;-61
2022/01/16 06:46:34;;;;;;;85.65;35.58;;;;;;;4.22;79.35;100291.66;5090436;28;20044;-61
2022/01/16 06:49:00;;;;;;;83.80;36.38;;;;;;;4.22;79.32;100283.84;5089037;28;20070;-63
2022/01/16 06:51:27;;;;;;;101.60;39.08;;;;;;;4.21;79.47;100282.97;5090167;28;20044;-68
2022/01/16 06:53:55;;;;;;;118.80;39.25;;;;;;;4.22;79.36;100284.69;5090479;28;20114;-62
2022/01/16 06:56:22;;;;;;;119.57;38.45;;;;;;;4.23;79.28;100296.81;5090341;28;20067;-65
2022/01/16 06:58:49;;;;;;;146.55;37.20;;;;;;;4.25;79.49;100302.00;5090279;28;20044;-63
2022/01/16 07:01:26;;;;;;;139.85;38.05;;;;;;;4.25;79.47;100302.88;5088981;28;20044;-61
2022/01/16 07:03:57;;;;;;;154.63;41.20;;;;;;;4.26;79.18;100295.91;5090066;28;20400;-62
2022/01/16 07:06:23;;;;;;;203.90;40.70;;;;;;;4.25;79.35;100295.06;5090234;28;20094;-61
2022/01/16 07:08:50;;;;;;;136.60;36.72;;;;;;;4.26;79.34;100304.56;5088730;28;20575;-60
2022/01/16 07:11:17;;;;;;;138.45;40.50;;;;;;;4.26;79.40;100308.94;5089672;28;20634;-61
2022/01/16 07:13:43;;;;;;;113.43;39.38;;;;;;;4.26;79.28;100307.19;5089941;28;20051;-62
2022/01/16 07:16:10;;;;;;;104.75;37.97;;;;;;;4.26;79.33;100309.78;5089943;28;20048;-61
2022/01/16 07:18:37;;;;;;;95.68;38.08;;;;;;;4.27;79.23;100323.69;5091873;28;20102;-62
2022/01/16 07:21:05;;;;;;;106.88;40.20;;;;;;;4.25;79.72;100318.50;5092677;28;20098;-62
2022/01/16 07:23:31;;;;;;;91.38;37.63;;;;;;;4.27;79.16;100323.69;5094041;28;20052;-62
2022/01/16 07:25:58;;;;;;;101.13;38.42;;;;;;;4.27;79.60;100326.28;5092999;28;20044;-61
2022/01/16 07:28:24;;;;;;;106.78;38.35;;;;;;;4.27;79.50;100327.13;5094005;28;20077;-61
2022/01/16 07:30:51;;;;;;;100.22;39.13;;;;;;;4.28;79.51;100323.66;5093656;28;20754;-62
2022/01/16 07:33:18;;;;;;;149.85;42.53;;;;;;;4.29;79.70;100335.78;5092915;28;20101;-61
2022/01/16 07:35:44;;;;;;;133.32;40.58;;;;;;;4.31;79.65;100343.59;5094126;28;20040;-61
2022/01/16 07:38:11;;;;;;;116.63;39.05;;;;;;;4.32;79.41;100349.63;5094095;28;20048;-61
2022/01/16 07:40:38;;;;;;;111.88;37.47;;;;;;;4.32;79.64;100339.22;5093737;28;20051;-63
2022/01/16 07:43:04;;;;;;;122.72;40.08;;;;;;;4.33;79.77;100338.34;5093677;28;20052;-62
2022/01/16 07:45:31;;;;;;;98.05;37.67;;;;;;;4.32;79.78;100340.06;5093692;28;20048;-61
2022/01/16 07:47:58;;;;;;;93.15;38.78;;;;;;;4.32;79.48;100357.44;5093770;28;20052;-64
2022/01/16 07:50:25;;;;;;;92.80;37.67;;;;;;;4.30;79.26;100355.75;5093599;28;20109;-62
2022/01/16 07:52:51;;;;;;;91.90;37.63;;;;;;;4.30;79.73;100363.56;5093735;28;20044;-61
2022/01/16 07:55:21;;;;;;;85.38;34.45;;;;;;;4.32;79.68;100360.06;5093600;28;20044;-62
2022/01/16 07:57:49;;;;;;;89.32;35.33;;;;;;;4.32;79.77;100373.97;5093264;28;20055;-62
2022/01/16 08:00:29;;;;;;;83.20;33.88;;;;;;;4.34;79.69;100369.56;5092064;28;20087;-62
2022/01/16 08:02:57;;;;;;;98.20;36.58;;;;;;;4.34;79.80;100366.94;5092159;28;20066;-61
2022/01/16 08:05:25;;;;;;;87.25;35.78;;;;;;;4.36;79.91;100375.63;5093371;28;20095;-61
2022/01/16 08:07:51;;;;;;;97.40;38.13;;;;;;;4.38;79.74;100376.41;5093313;28;20047;-62
2022/01/16 08:10:18;;;;;;;82.28;34.78;;;;;;;4.38;79.77;100386.00;5092793;28;20090;-62
2022/01/16 08:12:45;;;;;;;93.57;36.60;;;;;;;4.39;79.64;100374.69;5092084;28;20142;-62
2022/01/16 08:15:11;;;;;;;90.22;37.50;;;;;;;4.41;79.92;100383.34;5093003;28;20062;-61
2022/01/16 08:17:38;;;;;;;98.30;39.55;;;;;;;4.41;79.63;100375.53;5093249;28;20113;-60
2022/01/16 08:20:08;;;;;;;87.88;36.90;;;;;;;4.41;79.64;100365.94;5091563;28;20086;-62
2022/01/16 08:22:36;;;;;;;87.18;36.60;;;;;;;4.45;80.00;100360.66;5093007;28;20113;-63
2022/01/16 08:25:03;;;;;;;94.97;36.42;;;;;;;4.46;79.72;100355.44;5091646;28;20082;-61
2022/01/16 08:27:30;;;;;;;87.30;37.40;;;;;;;4.48;79.89;100345.81;5092985;28;20545;-62
2022/01/16 08:30:04;;;;;;;93.40;38.05;;;;;;;4.48;79.49;100351.03;5091914;28;20047;-61
2022/01/16 08:32:31;;;;;;;94.50;38.15;;;;;;;4.50;79.69;100345.78;5091359;28;20052;-62
2022/01/16 08:34:57;;;;;;;88.00;36.42;;;;;;;4.52;80.10;100336.19;5092715;28;20097;-61
2022/01/16 08:37:24;;;;;;;91.32;37.97;;;;;;;4.54;80.13;100343.09;5092998;28;20450;-61
2022/01/16 08:39:51;;;;;;;95.47;39.35;;;;;;;4.56;80.11;100343.03;5092706;28;20055;-61
2022/01/16 08:42:17;;;;;;;88.22;35.78;;;;;;;4.57;79.65;100337.78;5092415;28;20480;-61
2022/01/16 08:44:44;;;;;;;81.32;34.80;;;;;;;4.60;80.13;100352.50;5092682;28;20052;-61
2022/01/16 08:47:11;;;;;;;89.00;36.28;;;;;;;4.63;80.13;100351.59;5092526;28;20062;-62
2022/01/16 08:49:38;;;;;;;83.15;35.80;;;;;;;4.65;80.28;100336.75;5092331;28;20052;-60
2022/01/16 08:52:05;;;;;;;86.57;37.50;;;;;;;4.67;79.92;100338.44;5092348;28;20044;-61
2022/01/16 08:54:31;;;;;;;85.97;36.03;;;;;;;4.72;80.19;100337.47;5092780;28;20055;-62
2022/01/16 08:56:58;;;;;;;82.97;36.08;;;;;;;4.72;80.13;100335.72;5092532;28;20097;-61
2022/01/16 08:59:24;;;;;;;88.22;38.35;;;;;;;4.74;79.97;100338.31;5092216;28;20048;-60
2022/01/16 09:01:51;;;;;;;89.38;39.90;;;;;;;4.76;79.92;100350.41;5092390;28;20055;-60
2022/01/16 09:04:18;;;;;;;93.97;40.80;;;;;;;4.76;79.89;100345.19;5092125;28;20063;-62
2022/01/16 09:06:44;;;;;;;84.40;37.75;;;;;;;4.78;80.03;100356.44;5092033;28;20044;-61
2022/01/16 09:09:11;;;;;;;89.13;38.15;;;;;;;4.80;80.13;100361.63;5091919;28;20155;-60
2022/01/16 09:11:38;;;;;;;96.15;40.75;;;;;;;4.80;80.18;100365.09;5092050;28;20097;-61
2022/01/16 09:14:05;;;;;;;84.45;37.72;;;;;;;4.82;79.90;100370.25;5092274;28;20048;-61
2022/01/16 09:16:33;;;;;;;88.53;38.03;;;;;;;4.84;80.06;100373.69;5092189;28;20078;-61
2022/01/16 09:19:00;;;;;;;95.03;41.00;;;;;;;4.86;80.07;100373.66;5092009;28;20055;-62
2022/01/16 09:21:27;;;;;;;99.90;41.33;;;;;;;4.86;79.99;100392.78;5091715;28;20109;-61
2022/01/16 09:23:53;;;;;;;91.13;38.38;;;;;;;4.89;80.13;100384.00;5091682;28;20052;-61
2022/01/16 09:26:20;;;;;;;91.53;39.25;;;;;;;4.89;80.14;100390.09;5091685;28;20079;-62
2022/01/16 09:28:46;;;;;;;89.90;39.88;;;;;;;4.91;80.27;100390.06;5091978;28;20094;-60
2022/01/16 09:31:13;;;;;;;93.18;41.25;;;;;;;4.92;80.19;100386.56;5090342;28;20071;-61
2022/01/16 09:33:40;;;;;;;94.63;40.92;;;;;;;4.96;80.14;100382.97;5091522;28;20079;-63
2022/01/16 09:36:09;;;;;;;85.68;40.42;;;;;;;4.98;80.12;100386.44;5091651;28;20093;-61
2022/01/16 09:38:39;;;;;;;91.90;39.20;;;;;;;4.99;79.90;100393.34;5090612;28;20059;-61
2022/01/16 09:41:07;;;;;;;95.68;41.85;;;;;;;5.02;80.24;100388.06;5088763;28;20515;-60
2022/01/16 09:43:35;;;;;;;85.20;39.50;;;;;;;5.04;80.21;100385.41;5090487;28;20105;-61
2022/01/16 09:46:02;;;;;;;84.30;40.58;;;;;;;5.07;80.02;100390.56;5091312;28;20185;-61
2022/01/16 09:48:29;;;;;;;85.72;39.17;;;;;;;5.09;80.05;100384.41;5090940;28;20043;-61
2022/01/16 09:50:56;;;;;;;92.40;44.63;;;;;;;5.11;79.94;100392.19;5091160;28;20078;-61
2022/01/16 09:53:23;;;;;;;93.93;45.08;;;;;;;5.11;79.96;100392.19;5091629;28;20071;-64
2022/01/16 09:55:50;;;;;;;89.53;43.85;;;;;;;5.13;79.84;100400.88;5091483;28;20052;-60
2022/01/16 09:58:17;;;;;;;90.40;44.67;;;;;;;5.15;79.79;100392.97;5089922;28;20055;-61
2022/01/16 10:00:43;;;;;;;84.90;41.83;;;;;;;5.18;80.21;100392.91;5091030;28;20056;-64
2022/01/16 10:03:41;;;;;;;82.95;40.63;;;;;;;5.17;79.74;100399.03;5091450;28;20048;-65
2022/01/16 10:06:15;;;;;;;88.95;41.60;;;;;;;5.24;80.19;100400.59;5091374;28;20051;-61
2022/01/16 10:08:44;;;;;;;75.80;39.20;;;;;;;5.28;80.47;100404.00;5089869;28;20052;-68
2022/01/16 10:11:23;;;;;;;81.55;40.00;;;;;;;5.29;80.14;100408.31;5089537;28;20101;-61
2022/01/16 10:14:02;;;;;;;84.60;42.67;;;;;;;5.34;80.25;100407.31;5091096;28;20112;-61
2022/01/16 10:16:35;;;;;;;83.78;40.13;;;;;;;5.39;80.28;100416.78;5090954;28;20614;-70
2022/01/16 10:19:03;;;;;;;75.20;39.20;;;;;;;5.46;80.45;100413.13;5091002;28;20496;-61
2022/01/16 10:21:40;;;;;;;78.45;40.28;;;;;;;5.47;79.65;100409.63;5089486;28;20052;-69
2022/01/16 10:24:25;;;;;;;77.30;39.15;;;;;;;5.51;79.57;100406.03;5091214;28;20521;-62
2022/01/16 10:27:07;;;;;;;82.22;41.30;;;;;;;5.53;79.57;100419.88;5090761;28;20056;-62
2022/01/16 10:29:38;;;;;;;78.80;39.55;;;;;;;5.59;79.72;100416.28;5090659;28;20051;-61
2022/01/16 10:32:17;;;;;;;76.28;40.92;;;;;;;5.57;78.94;100413.69;5090757;28;20048;-61
2022/01/16 10:34:46;;;;;;;78.68;40.08;;;;;;;5.61;79.88;100404.88;5089476;28;20044;-62
2022/01/16 10:37:25;;;;;;;77.15;39.55;;;;;;;5.61;79.44;100410.09;5089461;28;20052;-62
2022/01/16 10:40:06;;;;;;;74.60;39.15;;;;;;;5.64;79.66;100409.16;5090348;28;20513;-61
2022/01/16 10:42:34;;;;;;;79.50;41.00;;;;;;;5.68;80.08;100407.34;5090439;28;20044;-62
2022/01/16 10:45:09;;;;;;;75.85;39.40;;;;;;;5.69;79.65;100414.28;5089218;28;20450;-61
2022/01/16 10:47:38;;;;;;;76.32;40.15;;;;;;;5.73;80.14;100419.38;5089347;28;20047;-61
2022/01/16 10:50:17;;;;;;;74.90;38.53;;;;;;;5.75;79.78;100419.34;5088983;28;20097;-61
2022/01/16 10:53:02;;;;;;;74.47;39.55;;;;;;;5.77;78.48;100430.63;5088649;28;20059;-63
2022/01/16 10:55:34;;;;;;;68.03;37.70;;;;;;;5.83;79.47;100422.59;5088939;28;20047;-63
2022/01/16 10:58:16;;;;;;;70.03;39.25;;;;;;;5.87;79.26;100418.19;5090442;28;20052;-61
2022/01/16 11:00:46;;;;;;;71.40;38.13;;;;;;;5.92;80.08;100420.66;5088749;28;20485;-60
2022/01/16 11:03:14;;;;;;;70.60;38.90;;;;;;;5.96;80.11;100427.50;5088911;28;20569;-61
2022/01/16 11:05:43;;;;;;;73.93;39.95;;;;;;;5.99;80.00;100430.88;5090408;28;20102;-61
2022/01/16 11:08:15;;;;;;;67.38;37.97;;;;;;;6.03;79.88;100426.50;5088857;28;20517;-62
2022/01/16 11:10:47;;;;;;;66.38;37.42;;;;;;;6.07;79.34;100422.03;5088645;28;20089;-62
2022/01/16 11:13:19;;;;;;;45.83;27.60;;;;;;;6.12;79.39;100428.84;5090189;28;20125;-62
2022/01/16 11:15:49;;;;;;;65.47;38.08;;;;;;;6.18;79.61;100433.06;5088654;28;20105;-63
2022/01/16 11:18:17;;;;;;;62.28;36.28;;;;;;;6.21;79.76;100432.09;5089080;28;20496;-61
2022/01/16 11:20:53;;;;;;;74.40;38.17;;;;;;;6.25;79.95;100425.88;5089984;28;20109;-61
2022/01/16 11:25:59;;;;;;;64.13;37.00;;;;;;;6.29;79.06;100432.75;5090050;28;20415;-62
2022/01/16 11:28:26;;;;;;;57.67;34.80;;;;;;;6.33;79.54;100437.00;5089944;28;20052;-62
2022/01/16 11:30:56;;;;;;;58.72;34.47;;;;;;;6.36;79.64;100434.28;5089691;28;20558;-61
2022/01/16 11:33:24;;;;;;;61.78;33.42;;;;;;;6.42;79.88;100440.25;5090025;28;20048;-61
2022/01/16 11:35:56;;;;;;;59.45;33.50;;;;;;;6.45;79.13;100435.78;5088488;28;20044;-63
2022/01/16 11:38:28;;;;;;;54.92;33.83;;;;;;;6.49;78.87;100441.75;5088670;28;20060;-61
2022/01/16 11:40:56;;;;;;;53.10;33.03;;;;;;;6.55;79.70;100438.13;5089589;28;20550;-63
2022/01/16 11:43:35;;;;;;;54.67;32.28;;;;;;;6.56;78.48;100432.84;5090063;28;20048;-62
2022/01/16 11:46:09;;;;;;;51.83;31.38;;;;;;;6.62;78.71;100437.88;5089992;28;20146;-62
2022/01/16 11:48:58;;;;;;;57.38;31.90;;;;;;;6.64;77.79;100433.47;5088772;28;20484;-62
2022/01/16 11:51:36;;;;;;;50.22;30.95;;;;;;;6.71;78.72;100428.06;5090005;28;20166;-61
2022/01/16 11:54:05;;;;;;;47.38;30.67;;;;;;;6.74;78.78;100422.75;5090120;28;20105;-62
2022/01/16 11:56:38;;;;;;;49.20;31.08;;;;;;;6.74;76.99;100425.34;5089896;28;20113;-62
2022/01/16 11:59:16;;;;;;;48.40;30.17;;;;;;;6.77;77.40;100428.72;5089866;28;20483;-61